sensor_id;sensor_type;location;lat;lon;timestamp;P1;durP1;ratioP1;P2;durP2;ratioP2
4903;SDS011;2467;48.142;11.616;2023-03-13T00:00:03;2.70;;;1.63;;
4903;SDS011;2467;48.142;11.616;2023-03-13T00:00:36;3.22;;;1.50;;
4903;SDS011;2467;48.142;11.616;2023-03-13T00:01:09;3.22;;;1.83;;
4903;SDS011;2467;48.142;11.616;2023-03-13T00:01:44;1.73;;;1.40;;
4903;SDS011;2467;48.142;11.616;2023-03-13T00:02:17;3.28;;;1.42;;
4903;SDS011;2467;48.142;11.616;2023-03-13T00:02:51;3.30;;;1.90;;
4903;SDS011;2467;48.142;11.616;2023-03-13T00:03:23;1.60;;;1.50;;
4903;SDS011;2467;48.142;11.616;2023-03-13T00:03:55;4.15;;;2.67;;
4903;SDS011;2467;48.142;11.616;2023-03-13T00:04:27;3.63;;;1.85;;
4903;SDS011;2467;48.142;11.616;2023-03-13T00:05:00;3.78;;;1.30;;
4903;SDS011;2467;48.142;11.616;2023-03-13T00:05:34;3.05;;;1.25;;
4903;SDS011;2467;48.142;11.616;2023-03-13T00:06:06;1.45;;;1.17;;
4903;SDS011;2467;48.142;11.616;2023-03-13T00:06:39;2.35;;;1.45;;
4903;SDS011;2467;48.142;11.616;2023-03-13T00:07:11;1.40;;;1.30;;
4903;SDS011;2467;48.142;11.616;2023-03-13T00:07:43;1.20;;;1.08;;
4903;SDS011;2467;48.142;11.616;2023-03-13T00:08:16;1.45;;;1.08;;
4903;SDS011;2467;48.142;11.616;2023-03-13T00:08:48;3.35;;;1.48;;
4903;SDS011;2467;48.142;11.616;2023-03-13T00:09:20;4.57;;;1.52;;
4903;SDS011;2467;48.142;11.616;2023-03-13T00:09:53;1.70;;;1.15;;
4903;SDS011;2467;48.142;11.616;2023-03-13T00:10:25;1.83;;;1.30;;
4903;SDS011;2467;48.142;11.616;2023-03-13T00:11:00;2.58;;;1.70;;
4903;SDS011;2467;48.142;11.616;2023-03-13T00:11:34;2.83;;;1.27;;
4903;SDS011;2467;48.142;11.616;2023-03-13T00:12:06;4.40;;;2.90;;
4903;SDS011;2467;48.142;11.616;2023-03-13T00:12:38;3.08;;;1.30;;
4903;SDS011;2467;48.142;11.616;2023-03-13T00:13:11;1.33;;;1.02;;
4903;SDS011;2467;48.142;11.616;2023-03-13T00:13:43;5.78;;;1.85;;
4903;SDS011;2467;48.142;11.616;2023-03-13T00:14:15;2.30;;;1.52;;
4903;SDS011;2467;48.142;11.616;2023-03-13T00:14:48;4.07;;;1.60;;
4903;SDS011;2467;48.142;11.616;2023-03-13T00:15:20;2.05;;;1.27;;
4903;SDS011;2467;48.142;11.616;2023-03-13T00:15:58;3.95;;;1.60;;
4903;SDS011;2467;48.142;11.616;2023-03-13T00:16:30;2.22;;;1.50;;
4903;SDS011;2467;48.142;11.616;2023-03-13T00:17:04;2.25;;;1.05;;
4903;SDS011;2467;48.142;11.616;2023-03-13T00:17:36;3.55;;;1.55;;
4903;SDS011;2467;48.142;11.616;2023-03-13T00:18:10;2.50;;;1.80;;
4903;SDS011;2467;48.142;11.616;2023-03-13T00:18:44;1.75;;;1.25;;
4903;SDS011;2467;48.142;11.616;2023-03-13T00:19:17;1.17;;;0.93;;
4903;SDS011;2467;48.142;11.616;2023-03-13T00:19:49;1.45;;;1.10;;
4903;SDS011;2467;48.142;11.616;2023-03-13T00:20:22;1.73;;;1.38;;
4903;SDS011;2467;48.142;11.616;2023-03-13T00:20:57;1.88;;;1.77;;
4903;SDS011;2467;48.142;11.616;2023-03-13T00:21:29;2.70;;;1.83;;
4903;SDS011;2467;48.142;11.616;2023-03-13T00:22:02;2.00;;;1.63;;
4903;SDS011;2467;48.142;11.616;2023-03-13T00:22:34;3.25;;;1.60;;
4903;SDS011;2467;48.142;11.616;2023-03-13T00:23:06;1.85;;;1.50;;
4903;SDS011;2467;48.142;11.616;2023-03-13T00:23:39;2.03;;;1.48;;
4903;SDS011;2467;48.142;11.616;2023-03-13T00:24:11;5.88;;;2.50;;
4903;SDS011;2467;48.142;11.616;2023-03-13T00:24:44;2.22;;;1.17;;
4903;SDS011;2467;48.142;11.616;2023-03-13T00:25:16;2.08;;;1.50;;
4903;SDS011;2467;48.142;11.616;2023-03-13T00:25:54;1.67;;;1.38;;
4903;SDS011;2467;48.142;11.616;2023-03-13T00:26:28;2.45;;;1.63;;
4903;SDS011;2467;48.142;11.616;2023-03-13T00:27:00;1.33;;;1.23;;
4903;SDS011;2467;48.142;11.616;2023-03-13T00:27:34;1.40;;;1.30;;
4903;SDS011;2467;48.142;11.616;2023-03-13T00:28:07;2.47;;;1.95;;
4903;SDS011;2467;48.142;11.616;2023-03-13T00:28:40;1.63;;;1.38;;
4903;SDS011;2467;48.142;11.616;2023-03-13T00:29:12;1.67;;;1.30;;
4903;SDS011;2467;48.142;11.616;2023-03-13T00:29:45;2.03;;;1.40;;
4903;SDS011;2467;48.142;11.616;2023-03-13T00:30:17;1.13;;;1.02;;
4903;SDS011;2467;48.142;11.616;2023-03-13T00:30:49;1.75;;;1.58;;
4903;SDS011;2467;48.142;11.616;2023-03-13T00:31:23;1.38;;;1.27;;
4903;SDS011;2467;48.142;11.616;2023-03-13T00:31:56;2.08;;;1.10;;
4903;SDS011;2467;48.142;11.616;2023-03-13T00:32:29;3.85;;;2.90;;
4903;SDS011;2467;48.142;11.616;2023-03-13T00:33:01;2.10;;;1.50;;
4903;SDS011;2467;48.142;11.616;2023-03-13T00:33:35;1.67;;;1.48;;
4903;SDS011;2467;48.142;11.616;2023-03-13T00:34:08;2.33;;;1.35;;
4903;SDS011;2467;48.142;11.616;2023-03-13T00:34:42;1.60;;;1.50;;
4903;SDS011;2467;48.142;11.616;2023-03-13T00:35:14;2.70;;;1.35;;
4903;SDS011;2467;48.142;11.616;2023-03-13T00:35:46;1.45;;;1.23;;
4903;SDS011;2467;48.142;11.616;2023-03-13T00:36:20;2.53;;;1.20;;
4903;SDS011;2467;48.142;11.616;2023-03-13T00:36:53;1.88;;;1.52;;
4903;SDS011;2467;48.142;11.616;2023-03-13T00:37:26;2.65;;;1.95;;
4903;SDS011;2467;48.142;11.616;2023-03-13T00:37:58;1.75;;;1.42;;
4903;SDS011;2467;48.142;11.616;2023-03-13T00:38:30;3.78;;;1.70;;
4903;SDS011;2467;48.142;11.616;2023-03-13T00:39:03;4.63;;;1.77;;
4903;SDS011;2467;48.142;11.616;2023-03-13T00:39:37;1.55;;;1.42;;
4903;SDS011;2467;48.142;11.616;2023-03-13T00:40:09;1.40;;;1.27;;
4903;SDS011;2467;48.142;11.616;2023-03-13T00:40:42;2.00;;;1.48;;
4903;SDS011;2467;48.142;11.616;2023-03-13T00:41:14;1.60;;;1.50;;
4903;SDS011;2467;48.142;11.616;2023-03-13T00:41:48;1.88;;;1.33;;
4903;SDS011;2467;48.142;11.616;2023-03-13T00:42:21;2.15;;;1.33;;
4903;SDS011;2467;48.142;11.616;2023-03-13T00:42:53;1.60;;;1.50;;
4903;SDS011;2467;48.142;11.616;2023-03-13T00:43:25;2.78;;;1.42;;
4903;SDS011;2467;48.142;11.616;2023-03-13T00:43:58;1.40;;;1.10;;
4903;SDS011;2467;48.142;11.616;2023-03-13T00:44:30;4.82;;;1.40;;
4903;SDS011;2467;48.142;11.616;2023-03-13T00:45:03;1.73;;;1.60;;
4903;SDS011;2467;48.142;11.616;2023-03-13T00:45:36;1.40;;;1.30;;
4903;SDS011;2467;48.142;11.616;2023-03-13T00:46:08;4.32;;;1.50;;
4903;SDS011;2467;48.142;11.616;2023-03-13T00:46:41;2.15;;;1.50;;
4903;SDS011;2467;48.142;11.616;2023-03-13T00:47:14;1.30;;;1.17;;
4903;SDS011;2467;48.142;11.616;2023-03-13T00:47:46;2.03;;;1.70;;
4903;SDS011;2467;48.142;11.616;2023-03-13T00:48:20;2.28;;;1.50;;
4903;SDS011;2467;48.142;11.616;2023-03-13T00:48:55;1.40;;;1.27;;
4903;SDS011;2467;48.142;11.616;2023-03-13T00:49:27;1.42;;;1.15;;
4903;SDS011;2467;48.142;11.616;2023-03-13T00:49:59;2.20;;;1.60;;
4903;SDS011;2467;48.142;11.616;2023-03-13T00:50:31;1.55;;;1.45;;
4903;SDS011;2467;48.142;11.616;2023-03-13T00:51:04;2.80;;;1.30;;
4903;SDS011;2467;48.142;11.616;2023-03-13T00:51:36;2.50;;;2.17;;
4903;SDS011;2467;48.142;11.616;2023-03-13T00:52:09;1.63;;;1.52;;
4903;SDS011;2467;48.142;11.616;2023-03-13T00:52:41;1.55;;;1.25;;
4903;SDS011;2467;48.142;11.616;2023-03-13T00:53:13;2.03;;;1.20;;
4903;SDS011;2467;48.142;11.616;2023-03-13T00:53:46;1.25;;;1.15;;
4903;SDS011;2467;48.142;11.616;2023-03-13T00:54:18;6.53;;;1.85;;
4903;SDS011;2467;48.142;11.616;2023-03-13T00:54:51;5.53;;;1.50;;
4903;SDS011;2467;48.142;11.616;2023-03-13T00:55:23;1.55;;;1.45;;
4903;SDS011;2467;48.142;11.616;2023-03-13T00:55:55;3.20;;;1.30;;
4903;SDS011;2467;48.142;11.616;2023-03-13T00:56:30;1.65;;;1.55;;
4903;SDS011;2467;48.142;11.616;2023-03-13T00:57:02;1.55;;;1.45;;
4903;SDS011;2467;48.142;11.616;2023-03-13T00:57:35;2.60;;;1.30;;
4903;SDS011;2467;48.142;11.616;2023-03-13T00:58:07;1.92;;;1.42;;
4903;SDS011;2467;48.142;11.616;2023-03-13T00:58:40;2.25;;;1.10;;
4903;SDS011;2467;48.142;11.616;2023-03-13T00:59:14;1.70;;;1.15;;
4903;SDS011;2467;48.142;11.616;2023-03-13T00:59:46;1.23;;;1.13;;
4903;SDS011;2467;48.142;11.616;2023-03-13T01:00:18;1.60;;;1.25;;
4903;SDS011;2467;48.142;11.616;2023-03-13T01:00:52;1.70;;;1.50;;
4903;SDS011;2467;48.142;11.616;2023-03-13T01:01:25;2.97;;;1.30;;
4903;SDS011;2467;48.142;11.616;2023-03-13T01:01:58;1.58;;;1.25;;
4903;SDS011;2467;48.142;11.616;2023-03-13T01:02:31;1.73;;;1.00;;
4903;SDS011;2467;48.142;11.616;2023-03-13T01:03:03;1.90;;;1.33;;
4903;SDS011;2467;48.142;11.616;2023-03-13T01:03:35;1.25;;;1.05;;
4903;SDS011;2467;48.142;11.616;2023-03-13T01:04:11;1.35;;;1.20;;
4903;SDS011;2467;48.142;11.616;2023-03-13T01:04:43;1.30;;;1.00;;
4903;SDS011;2467;48.142;11.616;2023-03-13T01:05:15;1.42;;;1.33;;
4903;SDS011;2467;48.142;11.616;2023-03-13T01:05:54;1.60;;;1.25;;
4903;SDS011;2467;48.142;11.616;2023-03-13T01:06:27;1.20;;;1.10;;
4903;SDS011;2467;48.142;11.616;2023-03-13T01:07:00;1.35;;;0.93;;
4903;SDS011;2467;48.142;11.616;2023-03-13T01:07:33;1.20;;;1.10;;
4903;SDS011;2467;48.142;11.616;2023-03-13T01:08:05;1.58;;;1.10;;
4903;SDS011;2467;48.142;11.616;2023-03-13T01:08:37;2.50;;;1.30;;
4903;SDS011;2467;48.142;11.616;2023-03-13T01:09:11;1.20;;;1.00;;
4903;SDS011;2467;48.142;11.616;2023-03-13T01:09:44;0.95;;;0.82;;
4903;SDS011;2467;48.142;11.616;2023-03-13T01:10:17;1.20;;;1.10;;
4903;SDS011;2467;48.142;11.616;2023-03-13T01:10:49;2.10;;;1.60;;
4903;SDS011;2467;48.142;11.616;2023-03-13T01:11:22;1.45;;;1.35;;
4903;SDS011;2467;48.142;11.616;2023-03-13T01:11:56;1.98;;;1.40;;
4903;SDS011;2467;48.142;11.616;2023-03-13T01:12:28;1.83;;;1.38;;
4903;SDS011;2467;48.142;11.616;2023-03-13T01:13:00;1.70;;;1.05;;
4903;SDS011;2467;48.142;11.616;2023-03-13T01:13:32;3.42;;;1.10;;
4903;SDS011;2467;48.142;11.616;2023-03-13T01:14:06;2.53;;;1.50;;
4903;SDS011;2467;48.142;11.616;2023-03-13T01:14:39;1.58;;;1.30;;
4903;SDS011;2467;48.142;11.616;2023-03-13T01:15:11;1.75;;;1.15;;
4903;SDS011;2467;48.142;11.616;2023-03-13T01:15:44;1.77;;;1.10;;
4903;SDS011;2467;48.142;11.616;2023-03-13T01:16:17;1.88;;;1.00;;
4903;SDS011;2467;48.142;11.616;2023-03-13T01:16:50;1.52;;;1.15;;
4903;SDS011;2467;48.142;11.616;2023-03-13T01:17:23;3.45;;;1.48;;
4903;SDS011;2467;48.142;11.616;2023-03-13T01:17:55;1.80;;;1.05;;
4903;SDS011;2467;48.142;11.616;2023-03-13T01:18:27;1.95;;;1.20;;
4903;SDS011;2467;48.142;11.616;2023-03-13T01:18:59;2.00;;;1.10;;
4903;SDS011;2467;48.142;11.616;2023-03-13T01:19:34;1.70;;;1.50;;
4903;SDS011;2467;48.142;11.616;2023-03-13T01:20:07;2.28;;;0.90;;
4903;SDS011;2467;48.142;11.616;2023-03-13T01:20:40;3.80;;;1.15;;
4903;SDS011;2467;48.142;11.616;2023-03-13T01:21:13;3.90;;;1.60;;
4903;SDS011;2467;48.142;11.616;2023-03-13T01:21:46;1.10;;;1.00;;
4903;SDS011;2467;48.142;11.616;2023-03-13T01:22:19;1.50;;;1.40;;
4903;SDS011;2467;48.142;11.616;2023-03-13T01:22:51;2.92;;;1.10;;
4903;SDS011;2467;48.142;11.616;2023-03-13T01:23:22;2.35;;;1.55;;
4903;SDS011;2467;48.142;11.616;2023-03-13T01:23:56;2.28;;;1.35;;
4903;SDS011;2467;48.142;11.616;2023-03-13T01:24:28;3.28;;;1.13;;
4903;SDS011;2467;48.142;11.616;2023-03-13T01:25:01;3.15;;;1.08;;
4903;SDS011;2467;48.142;11.616;2023-03-13T01:25:34;1.80;;;1.10;;
4903;SDS011;2467;48.142;11.616;2023-03-13T01:26:07;1.60;;;1.15;;
4903;SDS011;2467;48.142;11.616;2023-03-13T01:26:39;3.20;;;0.90;;
4903;SDS011;2467;48.142;11.616;2023-03-13T01:27:12;2.45;;;1.00;;
4903;SDS011;2467;48.142;11.616;2023-03-13T01:27:43;2.28;;;1.00;;
4903;SDS011;2467;48.142;11.616;2023-03-13T01:28:15;1.10;;;1.10;;
4903;SDS011;2467;48.142;11.616;2023-03-13T01:28:48;1.38;;;1.20;;
4903;SDS011;2467;48.142;11.616;2023-03-13T01:29:20;1.30;;;0.93;;
4903;SDS011;2467;48.142;11.616;2023-03-13T01:29:52;1.38;;;1.10;;
4903;SDS011;2467;48.142;11.616;2023-03-13T01:30:25;2.40;;;0.90;;
4903;SDS011;2467;48.142;11.616;2023-03-13T01:30:58;1.13;;;1.00;;
4903;SDS011;2467;48.142;11.616;2023-03-13T01:31:31;1.15;;;0.90;;
4903;SDS011;2467;48.142;11.616;2023-03-13T01:32:05;1.00;;;0.90;;
4903;SDS011;2467;48.142;11.616;2023-03-13T01:32:37;1.90;;;1.00;;
4903;SDS011;2467;48.142;11.616;2023-03-13T01:33:09;1.30;;;0.95;;
4903;SDS011;2467;48.142;11.616;2023-03-13T01:33:42;1.50;;;0.80;;
4903;SDS011;2467;48.142;11.616;2023-03-13T01:34:15;2.85;;;1.10;;
4903;SDS011;2467;48.142;11.616;2023-03-13T01:34:49;1.33;;;0.75;;
4903;SDS011;2467;48.142;11.616;2023-03-13T01:35:21;2.67;;;1.30;;
4903;SDS011;2467;48.142;11.616;2023-03-13T01:35:59;1.10;;;0.95;;
4903;SDS011;2467;48.142;11.616;2023-03-13T01:36:32;1.95;;;0.98;;
4903;SDS011;2467;48.142;11.616;2023-03-13T01:37:07;3.03;;;1.17;;
4903;SDS011;2467;48.142;11.616;2023-03-13T01:37:39;1.70;;;1.00;;
4903;SDS011;2467;48.142;11.616;2023-03-13T01:38:10;1.35;;;1.13;;
4903;SDS011;2467;48.142;11.616;2023-03-13T01:38:46;1.95;;;1.17;;
4903;SDS011;2467;48.142;11.616;2023-03-13T01:39:19;1.30;;;1.17;;
4903;SDS011;2467;48.142;11.616;2023-03-13T01:39:51;1.58;;;0.98;;
4903;SDS011;2467;48.142;11.616;2023-03-13T01:40:23;1.60;;;1.20;;
4903;SDS011;2467;48.142;11.616;2023-03-13T01:40:55;1.35;;;1.13;;
4903;SDS011;2467;48.142;11.616;2023-03-13T01:41:28;0.90;;;0.90;;
4903;SDS011;2467;48.142;11.616;2023-03-13T01:42:02;1.00;;;0.80;;
4903;SDS011;2467;48.142;11.616;2023-03-13T01:42:47;1.13;;;0.95;;
4903;SDS011;2467;48.142;11.616;2023-03-13T01:43:21;2.22;;;1.02;;
4903;SDS011;2467;48.142;11.616;2023-03-13T01:43:57;2.40;;;0.90;;
4903;SDS011;2467;48.142;11.616;2023-03-13T01:44:48;1.90;;;1.00;;
4903;SDS011;2467;48.142;11.616;2023-03-13T01:46:21;4.57;;;1.13;;
4903;SDS011;2467;48.142;11.616;2023-03-13T01:46:55;3.85;;;1.20;;
4903;SDS011;2467;48.142;11.616;2023-03-13T01:47:27;1.35;;;0.90;;
4903;SDS011;2467;48.142;11.616;2023-03-13T01:47:59;3.08;;;0.88;;
4903;SDS011;2467;48.142;11.616;2023-03-13T01:48:34;1.05;;;0.90;;
4903;SDS011;2467;48.142;11.616;2023-03-13T01:49:10;1.00;;;0.80;;
4903;SDS011;2467;48.142;11.616;2023-03-13T01:49:48;1.75;;;1.02;;
4903;SDS011;2467;48.142;11.616;2023-03-13T01:50:23;1.05;;;0.90;;
4903;SDS011;2467;48.142;11.616;2023-03-13T01:50:55;1.77;;;0.95;;
4903;SDS011;2467;48.142;11.616;2023-03-13T01:51:32;1.13;;;0.90;;
4903;SDS011;2467;48.142;11.616;2023-03-13T01:52:07;2.65;;;0.90;;
4903;SDS011;2467;48.142;11.616;2023-03-13T01:52:44;1.00;;;0.90;;
4903;SDS011;2467;48.142;11.616;2023-03-13T01:53:16;0.93;;;0.77;;
4903;SDS011;2467;48.142;11.616;2023-03-13T01:53:49;1.40;;;0.93;;
4903;SDS011;2467;48.142;11.616;2023-03-13T01:54:25;2.33;;;1.30;;
4903;SDS011;2467;48.142;11.616;2023-03-13T01:55:03;2.55;;;1.33;;
4903;SDS011;2467;48.142;11.616;2023-03-13T01:55:38;1.23;;;0.80;;
4903;SDS011;2467;48.142;11.616;2023-03-13T01:56:12;1.02;;;0.70;;
4903;SDS011;2467;48.142;11.616;2023-03-13T01:56:49;1.40;;;0.70;;
4903;SDS011;2467;48.142;11.616;2023-03-13T01:57:27;1.40;;;0.90;;
4903;SDS011;2467;48.142;11.616;2023-03-13T01:58:01;2.10;;;1.13;;
4903;SDS011;2467;48.142;11.616;2023-03-13T01:58:34;1.20;;;1.10;;
4903;SDS011;2467;48.142;11.616;2023-03-13T01:59:08;2.58;;;0.77;;
4903;SDS011;2467;48.142;11.616;2023-03-13T01:59:45;0.90;;;0.80;;
4903;SDS011;2467;48.142;11.616;2023-03-13T02:00:22;2.47;;;1.00;;
4903;SDS011;2467;48.142;11.616;2023-03-13T02:00:56;3.10;;;0.98;;
4903;SDS011;2467;48.142;11.616;2023-03-13T02:01:30;1.15;;;0.80;;
4903;SDS011;2467;48.142;11.616;2023-03-13T02:02:04;1.25;;;0.82;;
4903;SDS011;2467;48.142;11.616;2023-03-13T02:02:39;3.33;;;1.40;;
4903;SDS011;2467;48.142;11.616;2023-03-13T02:03:15;1.80;;;1.25;;
4903;SDS011;2467;48.142;11.616;2023-03-13T02:03:50;1.05;;;0.70;;
4903;SDS011;2467;48.142;11.616;2023-03-13T02:04:23;0.73;;;0.60;;
4903;SDS011;2467;48.142;11.616;2023-03-13T02:05:02;2.75;;;1.02;;
4903;SDS011;2467;48.142;11.616;2023-03-13T02:05:36;2.15;;;0.77;;
4903;SDS011;2467;48.142;11.616;2023-03-13T02:06:11;0.70;;;0.70;;
4903;SDS011;2467;48.142;11.616;2023-03-13T02:06:43;0.60;;;0.60;;
4903;SDS011;2467;48.142;11.616;2023-03-13T02:07:19;1.23;;;0.80;;
4903;SDS011;2467;48.142;11.616;2023-03-13T02:07:58;1.33;;;0.88;;
4903;SDS011;2467;48.142;11.616;2023-03-13T02:08:37;1.08;;;0.82;;
4903;SDS011;2467;48.142;11.616;2023-03-13T02:09:13;1.00;;;0.90;;
4903;SDS011;2467;48.142;11.616;2023-03-13T02:09:50;0.57;;;0.57;;
4903;SDS011;2467;48.142;11.616;2023-03-13T02:10:24;5.13;;;0.93;;
4903;SDS011;2467;48.142;11.616;2023-03-13T02:10:57;0.93;;;0.80;;
4903;SDS011;2467;48.142;11.616;2023-03-13T02:11:41;1.75;;;0.93;;
4903;SDS011;2467;48.142;11.616;2023-03-13T02:12:18;1.38;;;0.70;;
4903;SDS011;2467;48.142;11.616;2023-03-13T02:12:56;1.38;;;0.82;;
4903;SDS011;2467;48.142;11.616;2023-03-13T02:13:32;2.30;;;0.80;;
4903;SDS011;2467;48.142;11.616;2023-03-13T02:14:04;2.03;;;1.40;;
4903;SDS011;2467;48.142;11.616;2023-03-13T02:14:37;1.85;;;0.85;;
4903;SDS011;2467;48.142;11.616;2023-03-13T02:15:14;0.90;;;0.80;;
4903;SDS011;2467;48.142;11.616;2023-03-13T02:15:48;1.13;;;1.00;;
4903;SDS011;2467;48.142;11.616;2023-03-13T02:16:20;3.72;;;0.95;;
4903;SDS011;2467;48.142;11.616;2023-03-13T02:16:54;0.98;;;0.98;;
4903;SDS011;2467;48.142;11.616;2023-03-13T02:17:26;1.08;;;0.70;;
4903;SDS011;2467;48.142;11.616;2023-03-13T02:17:59;1.20;;;1.10;;
4903;SDS011;2467;48.142;11.616;2023-03-13T02:18:31;2.78;;;0.90;;
4903;SDS011;2467;48.142;11.616;2023-03-13T02:19:05;1.42;;;0.75;;
4903;SDS011;2467;48.142;11.616;2023-03-13T02:19:49;0.88;;;0.88;;
4903;SDS011;2467;48.142;11.616;2023-03-13T02:20:23;0.82;;;0.80;;
4903;SDS011;2467;48.142;11.616;2023-03-13T02:20:59;0.55;;;0.55;;
4903;SDS011;2467;48.142;11.616;2023-03-13T02:21:47;0.60;;;0.60;;
4903;SDS011;2467;48.142;11.616;2023-03-13T02:22:27;0.60;;;0.50;;
4903;SDS011;2467;48.142;11.616;2023-03-13T02:23:03;1.23;;;0.93;;
4903;SDS011;2467;48.142;11.616;2023-03-13T02:23:43;0.95;;;0.80;;
4903;SDS011;2467;48.142;11.616;2023-03-13T02:24:26;0.93;;;0.60;;
4903;SDS011;2467;48.142;11.616;2023-03-13T02:25:05;0.70;;;0.63;;
4903;SDS011;2467;48.142;11.616;2023-03-13T02:25:44;1.02;;;0.60;;
4903;SDS011;2467;48.142;11.616;2023-03-13T02:26:18;1.02;;;0.80;;
4903;SDS011;2467;48.142;11.616;2023-03-13T02:26:50;0.85;;;0.70;;
4903;SDS011;2467;48.142;11.616;2023-03-13T02:27:22;0.75;;;0.60;;
4903;SDS011;2467;48.142;11.616;2023-03-13T02:27:56;3.92;;;0.82;;
4903;SDS011;2467;48.142;11.616;2023-03-13T02:28:31;1.45;;;0.85;;
4903;SDS011;2467;48.142;11.616;2023-03-13T02:29:05;1.30;;;1.10;;
4903;SDS011;2467;48.142;11.616;2023-03-13T02:29:39;0.77;;;0.60;;
4903;SDS011;2467;48.142;11.616;2023-03-13T02:30:12;1.30;;;0.80;;
4903;SDS011;2467;48.142;11.616;2023-03-13T02:30:46;0.73;;;0.70;;
4903;SDS011;2467;48.142;11.616;2023-03-13T02:31:22;1.05;;;0.73;;
4903;SDS011;2467;48.142;11.616;2023-03-13T02:31:54;1.15;;;1.02;;
4903;SDS011;2467;48.142;11.616;2023-03-13T02:32:26;1.67;;;0.60;;
4903;SDS011;2467;48.142;11.616;2023-03-13T02:33:02;3.17;;;0.85;;
4903;SDS011;2467;48.142;11.616;2023-03-13T02:33:36;0.60;;;0.60;;
4903;SDS011;2467;48.142;11.616;2023-03-13T02:34:10;1.40;;;0.80;;
4903;SDS011;2467;48.142;11.616;2023-03-13T02:34:46;1.23;;;0.70;;
4903;SDS011;2467;48.142;11.616;2023-03-13T02:35:22;0.82;;;0.80;;
4903;SDS011;2467;48.142;11.616;2023-03-13T02:35:55;0.50;;;0.50;;
4903;SDS011;2467;48.142;11.616;2023-03-13T02:36:29;0.70;;;0.60;;
4903;SDS011;2467;48.142;11.616;2023-03-13T02:37:01;1.60;;;0.82;;
4903;SDS011;2467;48.142;11.616;2023-03-13T02:37:36;1.27;;;0.55;;
4903;SDS011;2467;48.142;11.616;2023-03-13T02:38:10;1.23;;;0.77;;
4903;SDS011;2467;48.142;11.616;2023-03-13T02:38:47;1.15;;;0.95;;
4903;SDS011;2467;48.142;11.616;2023-03-13T02:39:23;1.42;;;0.60;;
4903;SDS011;2467;48.142;11.616;2023-03-13T02:39:59;0.90;;;0.73;;
4903;SDS011;2467;48.142;11.616;2023-03-13T02:40:35;3.90;;;0.77;;
4903;SDS011;2467;48.142;11.616;2023-03-13T02:41:11;2.08;;;1.40;;
4903;SDS011;2467;48.142;11.616;2023-03-13T02:41:45;0.77;;;0.60;;
4903;SDS011;2467;48.142;11.616;2023-03-13T02:42:18;0.80;;;0.80;;
4903;SDS011;2467;48.142;11.616;2023-03-13T02:42:52;1.23;;;0.68;;
4903;SDS011;2467;48.142;11.616;2023-03-13T02:43:28;0.70;;;0.50;;
4903;SDS011;2467;48.142;11.616;2023-03-13T02:44:01;2.13;;;0.70;;
4903;SDS011;2467;48.142;11.616;2023-03-13T02:44:36;1.58;;;0.60;;
4903;SDS011;2467;48.142;11.616;2023-03-13T02:45:11;0.93;;;0.70;;
4903;SDS011;2467;48.142;11.616;2023-03-13T02:45:58;1.40;;;0.80;;
4903;SDS011;2467;48.142;11.616;2023-03-13T02:46:41;1.50;;;0.80;;
4903;SDS011;2467;48.142;11.616;2023-03-13T02:47:17;0.95;;;0.80;;
4903;SDS011;2467;48.142;11.616;2023-03-13T02:47:51;0.50;;;0.50;;
4903;SDS011;2467;48.142;11.616;2023-03-13T02:48:28;0.52;;;0.52;;
4903;SDS011;2467;48.142;11.616;2023-03-13T02:49:09;0.68;;;0.65;;
4903;SDS011;2467;48.142;11.616;2023-03-13T02:49:51;0.70;;;0.70;;
4903;SDS011;2467;48.142;11.616;2023-03-13T02:50:23;0.60;;;0.60;;
4903;SDS011;2467;48.142;11.616;2023-03-13T02:50:54;0.90;;;0.90;;
4903;SDS011;2467;48.142;11.616;2023-03-13T02:51:28;0.85;;;0.82;;
4903;SDS011;2467;48.142;11.616;2023-03-13T02:52:08;1.00;;;0.90;;
4903;SDS011;2467;48.142;11.616;2023-03-13T02:52:44;1.73;;;1.15;;
4903;SDS011;2467;48.142;11.616;2023-03-13T02:53:19;1.00;;;0.68;;
4903;SDS011;2467;48.142;11.616;2023-03-13T02:53:51;0.93;;;0.93;;
4903;SDS011;2467;48.142;11.616;2023-03-13T02:54:28;1.05;;;0.90;;
4903;SDS011;2467;48.142;11.616;2023-03-13T02:55:04;1.48;;;0.60;;
4903;SDS011;2467;48.142;11.616;2023-03-13T02:55:40;1.05;;;0.80;;
4903;SDS011;2467;48.142;11.616;2023-03-13T02:56:15;2.85;;;0.88;;
4903;SDS011;2467;48.142;11.616;2023-03-13T02:56:51;2.22;;;1.15;;
4903;SDS011;2467;48.142;11.616;2023-03-13T02:57:25;0.82;;;0.75;;
4903;SDS011;2467;48.142;11.616;2023-03-13T02:57:59;1.20;;;0.80;;
4903;SDS011;2467;48.142;11.616;2023-03-13T02:58:37;0.70;;;0.70;;
4903;SDS011;2467;48.142;11.616;2023-03-13T02:59:19;0.68;;;0.68;;
4903;SDS011;2467;48.142;11.616;2023-03-13T02:59:52;1.00;;;0.80;;
4903;SDS011;2467;48.142;11.616;2023-03-13T03:00:24;2.78;;;0.95;;
4903;SDS011;2467;48.142;11.616;2023-03-13T03:00:57;1.70;;;0.82;;
4903;SDS011;2467;48.142;11.616;2023-03-13T03:01:30;0.82;;;0.82;;
4903;SDS011;2467;48.142;11.616;2023-03-13T03:02:03;1.60;;;0.65;;
4903;SDS011;2467;48.142;11.616;2023-03-13T03:02:35;0.50;;;0.45;;
4903;SDS011;2467;48.142;11.616;2023-03-13T03:03:08;1.85;;;0.65;;
4903;SDS011;2467;48.142;11.616;2023-03-13T03:03:39;0.80;;;0.80;;
4903;SDS011;2467;48.142;11.616;2023-03-13T03:04:11;0.70;;;0.65;;
4903;SDS011;2467;48.142;11.616;2023-03-13T03:04:44;1.27;;;0.77;;
4903;SDS011;2467;48.142;11.616;2023-03-13T03:05:17;1.50;;;0.60;;
4903;SDS011;2467;48.142;11.616;2023-03-13T03:05:49;2.05;;;0.80;;
4903;SDS011;2467;48.142;11.616;2023-03-13T03:06:21;0.80;;;0.80;;
4903;SDS011;2467;48.142;11.616;2023-03-13T03:06:53;1.20;;;0.80;;
4903;SDS011;2467;48.142;11.616;2023-03-13T03:07:25;1.05;;;0.73;;
4903;SDS011;2467;48.142;11.616;2023-03-13T03:08:00;1.98;;;0.82;;
4903;SDS011;2467;48.142;11.616;2023-03-13T03:08:32;1.15;;;0.70;;
4903;SDS011;2467;48.142;11.616;2023-03-13T03:09:05;0.80;;;0.68;;
4903;SDS011;2467;48.142;11.616;2023-03-13T03:09:38;0.93;;;0.93;;
4903;SDS011;2467;48.142;11.616;2023-03-13T03:10:10;1.85;;;0.93;;
4903;SDS011;2467;48.142;11.616;2023-03-13T03:10:42;1.20;;;1.10;;
4903;SDS011;2467;48.142;11.616;2023-03-13T03:11:16;2.78;;;0.75;;
4903;SDS011;2467;48.142;11.616;2023-03-13T03:11:48;0.85;;;0.77;;
4903;SDS011;2467;48.142;11.616;2023-03-13T03:12:21;1.15;;;0.85;;
4903;SDS011;2467;48.142;11.616;2023-03-13T03:12:54;0.68;;;0.68;;
4903;SDS011;2467;48.142;11.616;2023-03-13T03:13:25;1.20;;;0.70;;
4903;SDS011;2467;48.142;11.616;2023-03-13T03:13:58;0.85;;;0.70;;
4903;SDS011;2467;48.142;11.616;2023-03-13T03:14:29;1.23;;;0.90;;
4903;SDS011;2467;48.142;11.616;2023-03-13T03:15:03;1.17;;;0.65;;
4903;SDS011;2467;48.142;11.616;2023-03-13T03:15:35;0.95;;;0.90;;
4903;SDS011;2467;48.142;11.616;2023-03-13T03:16:08;0.50;;;0.50;;
4903;SDS011;2467;48.142;11.616;2023-03-13T03:16:42;0.65;;;0.60;;
4903;SDS011;2467;48.142;11.616;2023-03-13T03:17:14;0.80;;;0.70;;
4903;SDS011;2467;48.142;11.616;2023-03-13T03:17:46;0.65;;;0.65;;
4903;SDS011;2467;48.142;11.616;2023-03-13T03:18:19;0.73;;;0.70;;
4903;SDS011;2467;48.142;11.616;2023-03-13T03:18:51;0.80;;;0.80;;
4903;SDS011;2467;48.142;11.616;2023-03-13T03:19:22;1.10;;;0.88;;
4903;SDS011;2467;48.142;11.616;2023-03-13T03:19:55;0.93;;;0.68;;
4903;SDS011;2467;48.142;11.616;2023-03-13T03:20:27;3.33;;;1.65;;
4903;SDS011;2467;48.142;11.616;2023-03-13T03:20:59;0.90;;;0.88;;
4903;SDS011;2467;48.142;11.616;2023-03-13T03:21:32;0.75;;;0.60;;
4903;SDS011;2467;48.142;11.616;2023-03-13T03:22:04;0.82;;;0.52;;
4903;SDS011;2467;48.142;11.616;2023-03-13T03:22:36;1.08;;;0.73;;
4903;SDS011;2467;48.142;11.616;2023-03-13T03:23:10;1.00;;;0.90;;
4903;SDS011;2467;48.142;11.616;2023-03-13T03:23:42;1.40;;;0.70;;
4903;SDS011;2467;48.142;11.616;2023-03-13T03:24:14;3.15;;;1.05;;
4903;SDS011;2467;48.142;11.616;2023-03-13T03:24:47;0.88;;;0.70;;
4903;SDS011;2467;48.142;11.616;2023-03-13T03:25:19;0.90;;;0.70;;
4903;SDS011;2467;48.142;11.616;2023-03-13T03:25:51;1.05;;;0.63;;
4903;SDS011;2467;48.142;11.616;2023-03-13T03:26:25;0.73;;;0.73;;
4903;SDS011;2467;48.142;11.616;2023-03-13T03:26:57;0.90;;;0.85;;
4903;SDS011;2467;48.142;11.616;2023-03-13T03:27:29;1.10;;;0.80;;